Αρχική σελίδα
METAR-TAF:

METAR-TAF

Αεροδρόμια :

Ντακάρ, Σενεγάλη

γεωγραφικό πλάτος: 14-44N, γεωγραφικό μήκος: 017-30W, υψόμετρο: 27 μ

Παρών καιρός

Η αναφορά έγινε 54 λεπτά πριν, στις 16:00 UTC
Άνεμος 12 kt από , μεταβλητός μεταξύ Δ και Β
Θερμοκρασία 28°C
Υγρασία 66%
Πίεση 1010 hPa
Ορατότητα 10 χλμ και άνω
Δεν υπάρχουν νέφη με βάση κάτω από τα 1500 μ. και δεν υπάρχουν νέφη σωρειτομελανίτες.

METAR: GOOY 271600Z 32012KT 280V350 CAVOK 28/21 Q1010

Χρόνος: 16:54 (16:54 UTC)

Πρόγνωση Καιρού

Η αναφορά έγινε 5 ώρες και 54 λεπτά πριν, στις 11:00 UTC
Η πρόγνωση ισχύει από τις 27 στις 12 UTC έως τις 28 στις 18 UTC
Άνεμος 8 kt από Δ/BΔ
Ορατότητα 10 χλμ και άνω
Δεν υπάρχουν νέφη με βάση κάτω από τα 1500 μ. και δεν υπάρχουν νέφη σωρειτομελανίτες.

TAF: GOOY 271100Z 2712/2818 30008KT CAVOK

Μετεωρολογικές αναφορές και προγνώσεις για περισσότερα από 4000 αεροδρόμια (δελτία METAR και TAF).

Οι διαθέσιμοι σταθμοί απεικονίζονται στο χάρτη με κίτρινες και κόκκινες κουκκίδες.

Μετακινήστε το ποντίκι πάνω από τις κουκκίδες για να δείτε το όνομα του σταθμού.

Στη συνέχεια, κάντε κλικ για να δείτε τις μετεωρολογικές αναφορές και τις προγνώσεις καιρού.

Για να αλλάξετε το χάρτη: κάντε κλικ στα πράσινα κουμπιά με τον μαύρο σταυρό για να ζουμάρετε, στο πράσινο κουμπί με την παύλα για να αφαιρέσετε το ζουμ ή στα πράσινα βέλη για να αντιπαραβάλλετε χάρτες.


METAR-TAF: